Time;durP1;ratioP1;P1;durP2;ratioP2;P2;SDS_P1;SDS_P2;PMS_P1;PMS_P2;Temp;Humidity;BMP_temperature;BMP_pressure;BME280_temperature;BME280_humidity;BME280_pressure;Samples;Min_cycle;Max_cycle;Signal;HPM_P1;HPM_P2
2022/12/11 00:00:04;;;;;;;23.83;12.57;;;;;;;-0.60;100.00;100066.81;5028425;28;20045;-73
2022/12/11 00:02:29;;;;;;;20.03;10.47;;;;;;;-0.66;100.00;100062.31;5034454;22;20060;-73
2022/12/11 00:04:55;;;;;;;19.90;9.87;;;;;;;-0.69;100.00;100059.66;5010312;28;20392;-73
2022/12/11 00:07:20;;;;;;;21.00;10.77;;;;;;;-0.61;100.00;100059.88;5006643;28;20369;-73
2022/12/11 00:09:45;;;;;;;22.43;12.67;;;;;;;-0.57;100.00;100060.03;5009043;28;20030;-72
2022/12/11 00:12:10;;;;;;;17.20;11.57;;;;;;;-0.52;100.00;100053.28;5004116;28;20096;-73
2022/12/11 00:14:36;;;;;;;17.73;10.97;;;;;;;-0.46;100.00;100060.38;5009157;28;20030;-73
2022/12/11 00:17:02;;;;;;;15.53;10.50;;;;;;;-0.37;100.00;100064.94;4992685;28;20100;-73
2022/12/11 00:19:27;;;;;;;18.23;11.00;;;;;;;-0.37;100.00;100060.63;5005313;28;20120;-72
2022/12/11 00:21:53;;;;;;;20.53;11.17;;;;;;;-0.36;100.00;100057.22;5005878;28;20173;-73
2022/12/11 00:24:18;;;;;;;23.83;12.23;;;;;;;-0.30;100.00;100059.13;5006129;28;20038;-73
2022/12/11 00:26:44;;;;;;;20.00;11.70;;;;;;;-0.16;100.00;100055.19;5004863;28;20116;-72
2022/12/11 00:29:13;;;;;;;18.17;10.67;;;;;;;-0.08;100.00;100065.78;5009936;28;20033;-72
2022/12/11 00:31:39;;;;;;;19.73;11.47;;;;;;;-0.02;100.00;100059.09;5003277;28;20386;-72
2022/12/11 00:34:04;;;;;;;18.97;11.47;;;;;;;-0.04;100.00;100058.16;5004317;28;20046;-73
2022/12/11 00:36:29;;;;;;;17.33;11.07;;;;;;;-0.05;100.00;100068.50;5003955;28;20030;-72
2022/12/11 00:38:55;;;;;;;18.30;11.00;;;;;;;-0.12;100.00;100076.94;5000069;28;20482;-73
2022/12/11 00:41:21;;;;;;;18.67;10.57;;;;;;;-0.11;100.00;100070.91;5004646;28;20060;-73
2022/12/11 00:43:46;;;;;;;22.37;12.00;;;;;;;-0.07;100.00;100065.84;5003655;28;20045;-72
2022/12/11 00:46:11;;;;;;;17.73;10.60;;;;;;;-0.08;100.00;100069.31;5002605;28;20035;-73
2022/12/11 00:48:37;;;;;;;17.80;10.60;;;;;;;-0.01;100.00;100071.22;5004906;28;20520;-73
2022/12/11 00:51:03;;;;;;;19.20;11.30;;;;;;;-0.03;100.00;100070.31;5004001;28;20503;-72
2022/12/11 00:53:29;;;;;;;21.10;11.77;;;;;;;-0.06;100.00;100072.78;5004733;28;20034;-73
2022/12/11 00:55:54;;;;;;;22.20;12.13;;;;;;;-0.03;100.00;100070.31;5003494;28;20243;-72
2022/12/11 00:58:20;;;;;;;20.67;11.03;;;;;;;-0.05;100.00;100071.97;5005212;28;20033;-73
2022/12/11 01:00:47;;;;;;;16.20;9.97;;;;;;;-0.09;100.00;100070.13;5003750;28;20116;-73
2022/12/11 01:03:13;;;;;;;21.13;11.00;;;;;;;-0.14;100.00;100066.50;5001141;28;20513;-72
2022/12/11 01:05:39;;;;;;;21.38;11.40;;;;;;;-0.18;100.00;100061.19;5006264;28;20042;-72
2022/12/11 01:08:04;;;;;;;19.83;11.65;;;;;;;-0.22;100.00;100066.28;5003480;28;20034;-73
2022/12/11 01:10:31;;;;;;;18.33;11.47;;;;;;;-0.25;100.00;100065.31;5004383;28;20045;-73
2022/12/11 01:12:59;;;;;;;23.47;10.93;;;;;;;-0.34;100.00;100065.03;5002603;28;20034;-73
2022/12/11 01:15:34;;;;;;;17.83;10.23;;;;;;;-0.39;100.00;100062.31;5003303;28;20512;-72
2022/12/11 01:17:59;;;;;;;21.47;11.80;;;;;;;-0.42;100.00;100066.50;5004069;28;20030;-72
2022/12/11 01:20:26;;;;;;;21.73;10.80;;;;;;;-0.39;100.00;100059.72;5010895;28;20084;-72
2022/12/11 01:22:57;;;;;;;18.63;9.63;;;;;;;-0.40;100.00;100063.13;5005170;28;20077;-72
2022/12/11 01:25:23;;;;;;;16.90;10.80;;;;;;;-0.52;100.00;100066.25;5004866;28;20042;-73
2022/12/11 01:27:52;;;;;;;16.73;10.70;;;;;;;-0.58;100.00;100070.34;5007568;28;20034;-73
2022/12/11 01:30:19;;;;;;;21.53;11.90;;;;;;;-0.55;100.00;100066.16;5005485;28;20514;-73
2022/12/11 01:32:44;;;;;;;20.03;11.97;;;;;;;-0.57;100.00;100067.81;5001733;28;20120;-72
2022/12/11 01:35:11;;;;;;;18.77;11.23;;;;;;;-0.58;100.00;100067.75;5003292;28;20054;-73
2022/12/11 01:37:36;;;;;;;16.87;11.47;;;;;;;-0.56;100.00;100066.97;4986413;28;20464;-73
2022/12/11 01:40:03;;;;;;;15.43;8.73;;;;;;;-0.50;100.00;100068.88;5002795;28;20109;-73
2022/12/11 01:42:28;;;;;;;18.13;10.63;;;;;;;-0.53;100.00;100069.66;5003987;28;20085;-73
2022/12/11 01:45:25;;;;;;;21.00;11.17;;;;;;;-0.48;100.00;100069.81;5002337;28;20077;-73
2022/12/11 01:48:01;;;;;;;20.13;10.47;;;;;;;-0.49;100.00;100071.53;5002452;28;20034;-72
2022/12/11 01:50:28;;;;;;;19.33;9.33;;;;;;;-0.55;100.00;100071.34;5000363;28;20049;-73
2022/12/11 01:52:53;;;;;;;18.40;10.87;;;;;;;-0.49;100.00;100066.34;5004430;28;20033;-73
2022/12/11 01:55:19;;;;;;;15.50;10.10;;;;;;;-0.40;100.00;100062.25;5005372;28;20681;-73
2022/12/11 01:57:48;;;;;;;18.17;9.30;;;;;;;-0.33;100.00;100064.22;5005048;28;20044;-73
2022/12/11 02:00:14;;;;;;;17.87;9.83;;;;;;;-0.36;100.00;100066.72;5002741;28;20501;-73
2022/12/11 02:02:39;;;;;;;14.10;9.23;;;;;;;-0.42;100.00;100061.31;4999438;28;20042;-73
2022/12/11 02:05:06;;;;;;;20.37;9.83;;;;;;;-0.41;100.00;100066.56;5006572;28;20038;-73
2022/12/11 02:07:39;;;;;;;16.97;8.73;;;;;;;-0.31;100.00;100060.84;5002043;28;20041;-73
2022/12/11 02:10:05;;;;;;;19.77;9.60;;;;;;;-0.28;100.00;100060.91;5007725;28;20091;-72
2022/12/11 02:12:52;;;;;;;19.17;9.77;;;;;;;-0.22;100.00;100055.03;5004763;28;20030;-72
2022/12/11 02:15:32;;;;;;;16.10;8.93;;;;;;;-0.14;100.00;100068.22;5001447;28;20556;-72
2022/12/11 02:18:16;;;;;;;12.43;8.53;;;;;;;-0.03;100.00;100062.53;5005937;28;20045;-73
2022/12/11 02:20:50;;;;;;;16.70;9.30;;;;;;;0.03;100.00;100060.91;4999036;28;20035;-73
2022/12/11 02:23:32;;;;;;;19.43;10.27;;;;;;;0.05;100.00;100059.25;5004630;28;20056;-73
2022/12/11 02:26:25;;;;;;;21.27;9.95;;;;;;;-0.18;100.00;100061.19;5003270;28;20183;-73
2022/12/11 02:28:57;;;;;;;15.77;9.70;;;;;;;-0.34;100.00;100057.25;5004476;28;20042;-72
2022/12/11 02:31:35;;;;;;;21.65;10.07;;;;;;;-0.61;100.00;100058.16;5010277;28;20046;-73
2022/12/11 02:34:09;;;;;;;19.27;10.43;;;;;;;-0.85;100.00;100060.88;5009755;28;20038;-73
2022/12/11 02:36:38;;;;;;;15.70;10.83;;;;;;;-1.00;100.00;100050.88;5008529;28;20056;-73
2022/12/11 02:39:07;;;;;;;23.50;11.67;;;;;;;-1.17;100.00;100052.06;5011895;28;20169;-73
2022/12/11 02:41:33;;;;;;;17.87;12.00;;;;;;;-1.18;100.00;100050.28;5007284;28;20042;-73
2022/12/11 02:44:01;;;;;;;17.73;10.03;;;;;;;-1.19;100.00;100053.72;4997732;28;20076;-73
2022/12/11 02:46:28;;;;;;;19.67;11.83;;;;;;;-1.21;100.00;100048.47;5004970;28;20026;-73
2022/12/11 02:48:55;;;;;;;20.10;10.43;;;;;;;-1.11;100.00;100050.53;5010115;28;20046;-72
2022/12/11 02:51:29;;;;;;;17.63;10.30;;;;;;;-1.03;100.00;100048.19;5009547;28;20041;-73
2022/12/11 02:53:57;;;;;;;18.60;11.20;;;;;;;-1.21;100.00;100048.47;5006247;28;20477;-72
2022/12/11 02:56:39;;;;;;;18.47;10.13;;;;;;;-1.32;100.00;100048.13;5008743;28;20046;-73
2022/12/11 02:59:11;;;;;;;20.40;9.45;;;;;;;-1.35;100.00;100053.19;5010091;28;20045;-73
2022/12/11 03:01:37;;;;;;;16.10;8.68;;;;;;;-1.45;100.00;100055.41;5010769;28;20439;-73
2022/12/11 03:04:02;;;;;;;20.73;10.83;;;;;;;-1.42;100.00;100056.38;5004598;28;20038;-72
2022/12/11 03:06:34;;;;;;;14.10;9.57;;;;;;;-1.43;100.00;100052.06;5007588;28;20038;-72
2022/12/11 03:08:59;;;;;;;21.27;8.15;;;;;;;-1.37;100.00;100053.97;4989633;28;20095;-72
2022/12/11 03:11:25;;;;;;;14.50;9.33;;;;;;;-1.44;100.00;100058.06;5010358;28;20173;-72
2022/12/11 03:13:52;;;;;;;18.43;9.33;;;;;;;-1.40;100.00;100054.75;5014795;28;20033;-73
2022/12/11 03:16:29;;;;;;;16.30;9.30;;;;;;;-1.33;100.00;100066.19;5008754;28;20052;-72
2022/12/11 03:19:06;;;;;;;14.50;9.10;;;;;;;-1.41;100.00;100059.88;5005949;28;20037;-73
2022/12/11 03:22:11;;;;;;;17.53;10.50;;;;;;;-1.32;100.00;100062.78;5011510;28;20053;-72
2022/12/11 03:24:51;;;;;;;14.73;8.63;;;;;;;-1.28;100.00;100055.97;5009253;28;20539;-73
2022/12/11 03:27:35;;;;;;;15.73;9.50;;;;;;;-1.33;100.00;100061.91;5009500;28;20044;-72
2022/12/11 03:30:09;;;;;;;14.70;8.90;;;;;;;-1.39;100.00;100055.63;5013988;28;20429;-73
2022/12/11 03:32:49;;;;;;;15.30;9.13;;;;;;;-1.38;100.00;100067.75;5007568;28;20038;-73
2022/12/11 03:35:25;;;;;;;18.10;9.33;;;;;;;-1.31;100.00;100064.56;5010365;28;20042;-73
2022/12/11 03:37:52;;;;;;;19.57;9.10;;;;;;;-1.32;100.00;100070.53;5006101;28;20177;-72
2022/12/11 03:40:21;;;;;;;18.10;9.67;;;;;;;-1.41;100.00;100065.94;5006155;28;20037;-72
2022/12/11 03:42:50;;;;;;;15.87;9.63;;;;;;;-1.51;100.00;100060.41;5003698;28;20038;-73
2022/12/11 03:45:18;;;;;;;14.03;9.07;;;;;;;-1.51;100.00;100068.16;5006349;28;20034;-71
2022/12/11 03:47:44;;;;;;;18.57;8.63;;;;;;;-1.60;100.00;100061.84;5006039;28;20066;-73
2022/12/11 03:50:12;;;;;;;14.73;9.37;;;;;;;-1.73;100.00;100067.38;5005591;28;20089;-73
2022/12/11 03:52:41;;;;;;;14.60;9.00;;;;;;;-1.79;100.00;100065.47;5007161;28;20144;-73
2022/12/11 03:55:08;;;;;;;14.70;8.70;;;;;;;-1.86;100.00;100067.75;5006139;28;20038;-72
2022/12/11 03:57:36;;;;;;;19.93;8.80;;;;;;;-1.89;100.00;100073.69;5004268;28;20034;-73
2022/12/11 04:00:05;;;;;;;11.07;7.97;;;;;;;-1.96;100.00;100065.69;5003954;28;20038;-72
2022/12/11 04:02:37;;;;;;;13.80;9.00;;;;;;;-1.94;100.00;100064.91;5005314;28;20053;-72
2022/12/11 04:05:02;;;;;;;18.30;8.93;;;;;;;-1.92;100.00;100068.44;5005766;28;20401;-72
2022/12/11 04:07:28;;;;;;;12.23;11.63;;;;;;;-1.92;100.00;100065.84;5004365;28;20424;-72
2022/12/11 04:09:54;;;;;;;23.67;12.70;;;;;;;-1.98;100.00;100066.50;5007419;28;20038;-72
2022/12/11 04:12:19;;;;;;;22.10;12.93;;;;;;;-1.99;100.00;100059.59;5014048;28;20045;-73
2022/12/11 04:15:02;;;;;;;24.70;14.30;;;;;;;-1.95;100.00;100060.56;5007008;28;20135;-73
2022/12/11 04:26:10;;;;;;;21.42;11.40;;;;;;;-1.85;100.00;100074.72;5005215;28;20045;-73
2022/12/11 04:28:37;;;;;;;22.07;12.63;;;;;;;-1.92;100.00;100070.13;5006603;28;20042;-73
2022/12/11 04:31:02;;;;;;;22.17;12.70;;;;;;;-2.00;100.00;100075.03;5003030;28;20042;-72
2022/12/11 04:33:28;;;;;;;24.07;13.20;;;;;;;-2.09;100.00;100069.53;5008135;28;20036;-72
2022/12/11 04:35:57;;;;;;;24.70;13.03;;;;;;;-2.08;100.00;100077.31;5006320;28;20400;-73
2022/12/11 04:38:22;;;;;;;19.83;11.33;;;;;;;-2.13;100.00;100073.69;5009366;28;20072;-73
2022/12/11 04:40:47;;;;;;;18.67;10.63;;;;;;;-2.11;100.00;100074.63;5009847;28;20030;-73
2022/12/11 04:43:13;;;;;;;22.37;11.93;;;;;;;-2.16;100.00;100072.72;5009918;28;20145;-73
2022/12/11 04:45:38;;;;;;;22.30;10.83;;;;;;;-2.18;100.00;100071.75;5008341;28;20084;-73
2022/12/11 04:48:03;;;;;;;20.77;11.07;;;;;;;-2.21;100.00;100075.97;5002698;28;20046;-72
2022/12/11 04:50:29;;;;;;;23.03;11.97;;;;;;;-2.18;100.00;100074.34;5006706;28;20029;-72
2022/12/11 04:52:55;;;;;;;18.90;11.27;;;;;;;-2.08;100.00;100071.28;5012206;28;20492;-73
2022/12/11 04:55:20;;;;;;;22.10;12.33;;;;;;;-2.05;100.00;100068.81;5009780;28;20045;-72
2022/12/11 04:57:45;;;;;;;24.97;12.47;;;;;;;-1.97;100.00;100067.38;5004943;28;20117;-73
2022/12/11 05:00:11;;;;;;;23.30;13.03;;;;;;;-1.95;100.00;100057.97;5010673;28;20037;-73
2022/12/11 05:02:38;;;;;;;22.27;13.07;;;;;;;-1.93;100.00;100061.50;5007484;28;20037;-73
2022/12/11 05:05:05;;;;;;;19.50;11.07;;;;;;;-1.94;100.00;100059.72;5010994;28;20042;-73
2022/12/11 05:07:31;;;;;;;21.17;11.37;;;;;;;-2.10;100.00;100070.34;5011985;28;20037;-73
2022/12/11 05:09:56;;;;;;;20.57;11.67;;;;;;;-2.20;100.00;100069.13;5011863;28;20033;-73
2022/12/11 05:12:22;;;;;;;18.00;9.87;;;;;;;-2.23;100.00;100064.72;5012082;28;20038;-72
2022/12/11 05:14:51;;;;;;;18.07;10.70;;;;;;;-2.21;100.00;100064.78;5011246;28;20041;-72
2022/12/11 05:17:16;;;;;;;20.43;12.40;;;;;;;-2.16;100.00;100062.38;5012509;28;20400;-72
2022/12/11 05:19:42;;;;;;;22.07;11.77;;;;;;;-2.14;100.00;100069.34;5009470;28;20033;-73
2022/12/11 05:22:07;;;;;;;19.57;11.77;;;;;;;-2.11;100.00;100061.72;5005265;28;20034;-73
2022/12/11 05:24:32;;;;;;;18.40;10.80;;;;;;;-2.18;100.00;100054.53;5007336;28;20034;-72
2022/12/11 05:26:58;;;;;;;21.43;11.13;;;;;;;-2.24;100.00;100056.91;5001767;28;20052;-73
2022/12/11 05:29:23;;;;;;;18.47;9.83;;;;;;;-2.34;100.00;100055.66;5002464;28;20034;-72
2022/12/11 05:31:48;;;;;;;20.63;11.33;;;;;;;-2.31;100.00;100054.91;5001873;28;20045;-72
2022/12/11 05:34:14;;;;;;;19.23;10.53;;;;;;;-2.34;100.00;100053.09;5004067;28;20038;-73
2022/12/11 05:36:40;;;;;;;17.73;9.50;;;;;;;-2.42;100.00;100051.91;4986265;28;20044;-73
2022/12/11 05:39:05;;;;;;;18.10;10.57;;;;;;;-2.52;100.00;100052.38;5000064;28;20092;-73
2022/12/11 05:41:32;;;;;;;22.10;10.90;;;;;;;-2.54;100.00;100054.03;5001220;28;20074;-73
2022/12/11 05:43:58;;;;;;;20.00;9.87;;;;;;;-2.50;100.00;100046.44;5002761;28;20041;-73
2022/12/11 05:46:27;;;;;;;18.23;10.50;;;;;;;-2.42;100.00;100039.00;5006567;28;20401;-73
2022/12/11 05:49:00;;;;;;;19.57;10.47;;;;;;;-2.50;100.00;100037.81;5003817;28;20030;-73
2022/12/11 05:51:27;;;;;;;18.23;10.20;;;;;;;-2.54;100.00;100044.59;4984023;28;20050;-73
2022/12/11 05:53:54;;;;;;;19.23;11.30;;;;;;;-2.54;100.00;100041.09;5004100;28;20121;-73
2022/12/11 05:56:23;;;;;;;18.67;9.70;;;;;;;-2.45;100.00;100033.72;5000755;28;20064;-73
2022/12/11 05:58:49;;;;;;;18.40;9.33;;;;;;;-2.50;100.00;100035.25;5003734;28;20618;-73
2022/12/11 06:01:20;;;;;;;19.20;10.40;;;;;;;-2.51;100.00;100033.50;5000917;28;20119;-73
2022/12/11 06:03:46;;;;;;;19.40;10.33;;;;;;;-2.43;100.00;100032.94;5002322;28;20145;-73
2022/12/11 06:06:12;;;;;;;20.87;10.63;;;;;;;-2.48;100.00;100029.31;5008727;28;20684;-73
2022/12/11 06:08:37;;;;;;;14.53;8.40;;;;;;;-2.61;100.00;100037.41;5006139;28;20034;-72
2022/12/11 06:11:03;;;;;;;18.00;9.27;;;;;;;-2.71;100.00;100032.72;5031447;22;20084;-76
2022/12/11 06:13:28;;;;;;;16.30;7.80;;;;;;;-2.71;100.00;100040.47;5026103;28;20484;-76
2022/12/11 06:15:54;;;;;;;16.03;8.67;;;;;;;-2.73;100.00;100032.63;5020636;28;20038;-76
2022/12/11 06:18:19;;;;;;;17.13;9.83;;;;;;;-2.65;100.00;100030.34;5024350;28;20045;-76
2022/12/11 06:20:44;;;;;;;15.30;8.27;;;;;;;-2.73;100.00;100030.06;5024094;28;20143;-76
2022/12/11 06:23:10;;;;;;;16.17;8.73;;;;;;;-2.66;100.00;100039.81;5006403;28;20034;-76
2022/12/11 06:25:39;;;;;;;21.20;10.27;;;;;;;-2.61;100.00;100040.00;5004717;28;20046;-76
2022/12/11 06:28:05;;;;;;;18.77;9.33;;;;;;;-2.65;100.00;100044.19;5009206;28;20564;-76
2022/12/11 06:30:30;;;;;;;20.10;9.93;;;;;;;-2.70;100.00;100043.13;5018667;28;20026;-76
2022/12/11 06:32:57;;;;;;;16.93;8.60;;;;;;;-2.70;100.00;100040.53;5007189;28;20070;-76
2022/12/11 06:35:22;;;;;;;15.80;8.57;;;;;;;-2.76;100.00;100034.22;5010579;28;20045;-77
2022/12/11 06:37:47;;;;;;;17.33;9.30;;;;;;;-2.83;100.00;100053.75;5006730;28;20030;-76
2022/12/11 06:40:13;;;;;;;13.50;7.33;;;;;;;-2.82;100.00;100052.97;5009578;28;20095;-76
2022/12/11 06:42:38;;;;;;;15.57;7.80;;;;;;;-2.77;100.00;100055.72;5004596;28;20038;-76
2022/12/11 06:45:04;;;;;;;18.17;8.73;;;;;;;-2.76;100.00;100052.31;5003481;28;20088;-75
2022/12/11 06:47:29;;;;;;;16.23;7.90;;;;;;;-2.79;100.00;100055.66;5001054;28;20061;-77
2022/12/11 06:49:55;;;;;;;16.17;7.87;;;;;;;-2.81;100.00;100053.84;5001785;28;20044;-76
2022/12/11 06:52:22;;;;;;;16.27;8.17;;;;;;;-2.78;100.00;100049.66;5006944;28;20109;-76
2022/12/11 06:54:48;;;;;;;17.13;8.30;;;;;;;-2.76;100.00;100045.44;5005446;28;20369;-77
2022/12/11 06:57:14;;;;;;;13.30;7.43;;;;;;;-2.79;100.00;100047.91;4999469;28;20084;-77
2022/12/11 06:59:40;;;;;;;13.77;7.07;;;;;;;-2.81;100.00;100041.78;5003784;28;20061;-76
2022/12/11 07:02:05;;;;;;;16.63;8.43;;;;;;;-2.77;100.00;100043.69;5003597;28;20056;-76
2022/12/11 07:04:31;;;;;;;14.73;7.93;;;;;;;-2.82;100.00;100039.16;5003156;28;20035;-77
2022/12/11 07:06:56;;;;;;;15.47;7.87;;;;;;;-2.83;100.00;100039.97;5000374;28;20038;-76
2022/12/11 07:09:22;;;;;;;16.50;8.00;;;;;;;-2.86;100.00;100043.31;5006258;28;20034;-76
2022/12/11 07:11:51;;;;;;;14.50;7.70;;;;;;;-2.79;100.00;100044.44;5003106;28;20026;-76
2022/12/11 07:14:16;;;;;;;14.47;7.40;;;;;;;-2.81;100.00;100057.28;5001111;28;20558;-76
2022/12/11 07:16:42;;;;;;;15.17;8.00;;;;;;;-2.76;100.00;100058.34;5007684;28;20042;-76
2022/12/11 07:19:07;;;;;;;14.00;7.80;;;;;;;-2.72;100.00;100059.38;5009161;28;20077;-76
2022/12/11 07:21:33;;;;;;;14.63;7.93;;;;;;;-2.67;100.00;100065.59;5008360;28;20041;-76
2022/12/11 07:23:58;;;;;;;16.23;7.73;;;;;;;-2.70;100.00;100063.78;5005813;28;20041;-77
2022/12/11 07:26:24;;;;;;;16.87;8.63;;;;;;;-2.76;100.00;100063.53;5005222;28;20060;-76
2022/12/11 07:28:49;;;;;;;17.67;8.37;;;;;;;-2.71;100.00;100072.34;5010973;28;20033;-77
2022/12/11 07:31:21;;;;;;;18.40;9.10;;;;;;;-2.73;100.00;100063.63;5003916;28;20550;-76
2022/12/11 07:33:52;;;;;;;21.55;10.75;;;;;;;-2.62;100.00;100070.94;5006030;28;20027;-76
2022/12/11 07:36:17;;;;;;;29.23;12.10;;;;;;;-2.65;100.00;100069.09;5007946;28;20061;-75
2022/12/11 07:38:42;;;;;;;21.23;10.43;;;;;;;-2.63;100.00;100064.00;5005141;28;20104;-76
2022/12/11 07:41:14;;;;;;;17.67;9.10;;;;;;;-2.66;100.00;100078.56;5002046;28;20056;-76
2022/12/11 07:43:41;;;;;;;16.63;8.45;;;;;;;-2.69;100.00;100069.81;5005838;28;20045;-76
2022/12/11 07:46:10;;;;;;;16.43;8.10;;;;;;;-2.62;100.00;100070.94;5004758;28;20038;-76
2022/12/11 07:48:36;;;;;;;15.90;8.33;;;;;;;-2.58;100.00;100085.75;5004232;28;20034;-76
2022/12/11 07:51:10;;;;;;;17.97;9.07;;;;;;;-2.49;100.00;100081.81;5003676;28;20563;-76
2022/12/11 07:53:35;;;;;;;13.93;7.90;;;;;;;-2.45;100.00;100075.06;5009114;28;20026;-76
2022/12/11 07:56:01;;;;;;;14.57;7.30;;;;;;;-2.40;100.00;100078.72;5008734;28;20041;-77
2022/12/11 07:58:26;;;;;;;13.17;7.23;;;;;;;-2.35;100.00;100084.06;5001154;28;20041;-76
2022/12/11 08:00:52;;;;;;;13.93;7.70;;;;;;;-2.33;100.00;100085.88;5005011;28;20037;-76
2022/12/11 08:03:17;;;;;;;15.00;7.50;;;;;;;-2.30;100.00;100074.78;5006613;28;20509;-76
2022/12/11 08:05:51;;;;;;;15.53;8.00;;;;;;;-2.32;100.00;100072.13;5002260;28;20039;-76
2022/12/11 08:08:17;;;;;;;17.70;9.20;;;;;;;-2.32;100.00;100077.28;5002995;28;20042;-76
2022/12/11 08:10:43;;;;;;;16.60;7.90;;;;;;;-2.33;100.00;100079.81;5001841;28;20038;-76
2022/12/11 08:13:08;;;;;;;19.63;8.63;;;;;;;-2.31;100.00;100085.91;5005747;28;20092;-77
2022/12/11 08:15:34;;;;;;;14.73;7.90;;;;;;;-2.35;100.00;100076.31;5002402;28;20038;-76
2022/12/11 08:18:00;;;;;;;19.90;8.33;;;;;;;-2.34;100.00;100072.88;5005215;28;20136;-76
2022/12/11 08:20:25;;;;;;;14.70;8.30;;;;;;;-2.35;100.00;100074.59;5006373;28;20480;-76
2022/12/11 08:22:50;;;;;;;16.93;9.00;;;;;;;-2.37;100.00;100078.81;5002600;28;20501;-77
2022/12/11 08:25:16;;;;;;;15.30;8.67;;;;;;;-2.32;100.00;100072.13;5005432;28;20042;-76
2022/12/11 08:27:41;;;;;;;18.83;9.00;;;;;;;-2.34;100.00;100068.59;5004109;28;20029;-76
2022/12/11 08:30:07;;;;;;;17.00;8.27;;;;;;;-2.34;100.00;100070.31;4997780;28;20408;-76
2022/12/11 08:32:33;;;;;;;20.00;9.07;;;;;;;-2.47;100.00;100072.41;5003427;28;20416;-77
2022/12/11 08:34:58;;;;;;;18.83;9.10;;;;;;;-2.44;100.00;100074.22;5002958;28;20029;-77
2022/12/11 08:37:24;;;;;;;15.50;8.20;;;;;;;-2.41;100.00;100061.44;5001234;28;20447;-76
2022/12/11 08:39:50;;;;;;;19.03;9.43;;;;;;;-2.36;100.00;100059.88;4988267;28;20037;-76
2022/12/11 08:42:15;;;;;;;17.10;9.47;;;;;;;-2.24;100.00;100065.53;5006028;28;20079;-77
2022/12/11 08:44:40;;;;;;;18.97;8.73;;;;;;;-2.17;99.21;100066.66;5007153;28;20128;-77
2022/12/11 08:47:08;;;;;;;16.27;8.87;;;;;;;-2.16;99.01;100057.19;5009998;28;20074;-76
2022/12/11 08:49:34;;;;;;;160.57;148.10;;;;;;;-2.08;98.40;100061.81;5004648;28;20129;-76
2022/12/11 08:51:59;;;;;;;4.33;2.97;;;;;;;-2.01;98.37;100061.22;5001946;28;20066;-77
2022/12/11 08:54:24;;;;;;;4.77;3.23;;;;;;;-1.90;98.33;100059.03;5003589;28;20522;-76
2022/12/11 08:56:50;;;;;;;14.67;8.73;;;;;;;-1.83;97.82;100063.59;5002562;28;20092;-77
2022/12/11 08:59:17;;;;;;;12.27;7.00;;;;;;;-1.80;97.51;100068.00;5002240;28;20128;-77
2022/12/11 09:01:42;;;;;;;16.00;8.50;;;;;;;-2.00;96.57;100062.97;5004144;28;20057;-76
2022/12/11 09:04:08;;;;;;;15.03;7.90;;;;;;;-2.06;97.68;100067.06;5005372;28;20038;-76
2022/12/11 09:06:33;;;;;;;14.93;8.03;;;;;;;-2.13;97.72;100065.06;5004555;28;20043;-76
2022/12/11 09:09:00;;;;;;;15.90;8.50;;;;;;;-2.09;97.75;100065.25;5008844;28;20029;-76
2022/12/11 09:11:29;;;;;;;12.97;7.13;;;;;;;-1.93;97.67;100056.34;4984620;28;20064;-76
2022/12/11 09:13:54;;;;;;;17.27;9.13;;;;;;;-1.66;96.95;100058.13;5004777;28;20034;-76
2022/12/11 09:16:22;;;;;;;11.83;7.23;;;;;;;-1.45;96.69;100053.69;5004865;28;20121;-77
2022/12/11 09:18:49;;;;;;;15.47;8.20;;;;;;;-1.30;95.38;100055.06;5004225;28;20041;-76
2022/12/11 09:21:17;;;;;;;13.03;7.40;;;;;;;-1.23;94.56;100052.75;5002159;28;20121;-75
2022/12/11 09:23:43;;;;;;;13.70;7.63;;;;;;;-1.32;94.08;100050.69;5005808;28;20097;-76
2022/12/11 09:26:11;;;;;;;23.40;8.90;;;;;;;-1.31;94.07;100046.44;5003563;28;20030;-77
2022/12/11 09:28:37;;;;;;;15.53;7.60;;;;;;;-1.33;94.33;100046.38;5001002;28;20092;-76
2022/12/11 09:31:11;;;;;;;13.60;7.00;;;;;;;-1.22;93.38;100045.84;5004418;28;20046;-76
2022/12/11 09:33:37;;;;;;;15.10;7.93;;;;;;;-1.20;94.23;100047.66;4988442;28;20556;-76
2022/12/11 09:36:03;;;;;;;12.73;7.30;;;;;;;-1.18;93.29;100048.59;5005812;28;20519;-76
2022/12/11 09:38:29;;;;;;;17.33;8.93;;;;;;;-1.14;93.51;100042.66;5009343;28;20033;-76
2022/12/11 09:40:55;;;;;;;14.03;7.77;;;;;;;-1.19;93.65;100038.19;5005929;28;20045;-76
2022/12/11 09:43:39;;;;;;;16.53;7.97;;;;;;;-1.14;93.86;100041.78;5005409;28;20029;-76
2022/12/11 09:46:10;;;;;;;15.33;8.33;;;;;;;-1.13;93.93;100048.72;4998796;28;20068;-77
2022/12/11 09:48:37;;;;;;;16.47;9.07;;;;;;;-1.02;94.68;100042.22;5001681;28;20092;-77
2022/12/11 09:51:16;;;;;;;15.00;7.70;;;;;;;-0.91;93.73;100040.84;5001152;28;20116;-76
2022/12/11 09:53:41;;;;;;;16.33;8.90;;;;;;;-0.92;93.98;100039.09;5001702;28;20088;-77
2022/12/11 09:56:23;;;;;;;15.77;9.13;;;;;;;-0.82;94.18;100039.38;5000019;28;20062;-76
2022/12/11 09:59:19;;;;;;;15.07;7.73;;;;;;;-0.86;93.39;100046.16;5001089;28;20401;-77
2022/12/11 10:02:44;;;;;;;15.87;9.17;;;;;;;-0.97;94.12;100034.56;5001919;28;20515;-77
2022/12/11 10:05:20;;;;;;;15.03;8.83;;;;;;;-0.94;94.07;100040.75;4968767;28;20532;-76
2022/12/11 10:07:59;;;;;;;18.63;10.43;;;;;;;-0.91;93.84;100035.66;5001020;28;20038;-77
2022/12/11 10:10:50;;;;;;;17.70;9.43;;;;;;;-1.10;93.46;100035.91;4996931;28;20053;-77
2022/12/11 10:13:34;;;;;;;16.23;9.30;;;;;;;-1.27;93.85;100040.50;5002511;28;20034;-77
2022/12/11 10:16:16;;;;;;;18.70;9.57;;;;;;;-1.36;94.18;100035.91;4999747;28;20045;-77
2022/12/11 10:18:41;;;;;;;14.75;8.93;;;;;;;-1.40;94.58;100026.28;5005633;28;20025;-76
2022/12/11 10:21:07;;;;;;;16.07;8.87;;;;;;;-1.44;94.48;100037.38;5004597;28;20038;-79
2022/12/11 10:23:52;;;;;;;16.77;10.47;;;;;;;-1.47;95.22;100032.06;5007128;28;20034;-79
2022/12/11 10:26:20;;;;;;;17.37;9.67;;;;;;;-1.45;95.04;100032.13;5003863;28;20034;-79
2022/12/11 10:28:46;;;;;;;19.53;11.40;;;;;;;-1.42;95.97;100014.09;5003724;28;20117;-79
2022/12/11 10:31:30;;;;;;;15.73;9.40;;;;;;;-1.15;96.00;100017.63;5005161;28;20094;-79
2022/12/11 10:34:00;;;;;;;15.50;9.37;;;;;;;-1.04;95.46;100012.78;5007571;28;20058;-79
2022/12/11 10:36:36;;;;;;;16.20;9.33;;;;;;;-0.97;94.96;100008.66;5007382;28;20544;-79
2022/12/11 10:39:02;;;;;;;18.73;9.67;;;;;;;-1.09;94.30;100001.41;4999746;28;20049;-79
2022/12/11 10:41:40;;;;;;;15.40;8.03;;;;;;;-1.15;95.43;100001.22;5002161;28;20068;-79
2022/12/11 10:44:35;;;;;;;16.17;9.53;;;;;;;-1.09;95.72;100006.56;5004044;28;20057;-79
2022/12/11 10:47:12;;;;;;;17.33;9.37;;;;;;;-1.11;94.72;100001.31;4974483;28;20519;-79
2022/12/11 10:49:43;;;;;;;16.87;9.27;;;;;;;-1.26;95.13;99994.78;5001550;28;20038;-78
2022/12/11 10:52:23;;;;;;;18.67;10.10;;;;;;;-1.11;95.54;99996.16;5013177;28;20169;-79
2022/12/11 10:54:57;;;;;;;19.40;9.90;;;;;;;-1.03;95.18;100000.69;5008023;28;20120;-79
2022/12/11 10:57:31;;;;;;;16.73;10.17;;;;;;;-0.97;94.27;99999.22;4995252;28;20034;-79
2022/12/11 10:59:58;;;;;;;16.47;9.40;;;;;;;-0.91;94.13;99998.50;4996253;28;20038;-79
2022/12/11 11:02:33;;;;;;;17.03;9.77;;;;;;;-1.05;93.99;100000.63;5011001;28;20029;-79
2022/12/11 11:05:09;;;;;;;16.23;9.50;;;;;;;-1.27;94.27;100003.38;5008292;28;20038;-79
2022/12/11 11:07:34;;;;;;;15.23;9.13;;;;;;;-1.22;95.23;99994.06;5005875;28;20045;-79
2022/12/11 11:10:15;;;;;;;19.47;10.47;;;;;;;-1.23;94.97;100000.06;5004955;28;20050;-79
2022/12/11 11:12:49;;;;;;;17.40;9.60;;;;;;;-1.30;94.30;99990.34;5005332;28;20042;-78
2022/12/11 11:15:21;;;;;;;15.90;9.60;;;;;;;-1.32;95.70;100001.50;5007670;28;20050;-78
2022/12/11 11:17:53;;;;;;;17.90;9.70;;;;;;;-1.28;95.58;99988.66;5004058;28;20042;-79
2022/12/11 11:20:21;;;;;;;18.85;10.30;;;;;;;-1.24;95.04;99993.13;5007948;28;20481;-79
2022/12/11 11:22:54;;;;;;;18.63;10.10;;;;;;;-1.30;95.13;99982.56;5007449;28;20053;-78
2022/12/11 11:25:28;;;;;;;19.90;10.73;;;;;;;-1.20;96.10;99980.34;5008245;28;20034;-79